PKWA TAF

85.8 °F / 29.9 °C
ENE at 17 MPH
68%
74.3°F / 23.5 °C
29.84" (1010 mb)
10 mile(s)
mostly cloudy

PKWA TAF

2018/02/22 18:30
TAF PKWA 221726Z 2218/2318 07013KT P6SM SCT023